Time;durP1;ratioP1;P1;durP2;ratioP2;P2;SDS_P1;SDS_P2;PMS_P1;PMS_P2;Temp;Humidity;BMP_temperature;BMP_pressure;BME280_temperature;BME280_humidity;BME280_pressure;Samples;Min_cycle;Max_cycle;Signal;HPM_P1;HPM_P2
2023/10/20 00:00:06;;;;;;;47.50;37.75;;;;;;;14.82;74.02;97381.53;4455278;32;34052;-86
2023/10/20 00:02:34;;;;;;;48.72;35.60;;;;;;;14.95;73.36;97387.19;4443258;32;32864;-88
2023/10/20 00:05:05;;;;;;;47.97;38.00;;;;;;;14.98;73.44;97385.31;4450054;32;33911;-88
2023/10/20 00:07:32;;;;;;;50.58;36.70;;;;;;;14.90;73.74;97376.91;4449994;32;34255;-88
2023/10/20 00:10:00;;;;;;;45.22;35.65;;;;;;;14.92;73.72;97380.31;4451972;32;35397;-88
2023/10/20 00:12:28;;;;;;;46.22;36.20;;;;;;;14.95;73.87;97368.91;4452042;32;33461;-88
2023/10/20 00:14:56;;;;;;;46.15;36.70;;;;;;;14.81;74.65;97371.97;4453492;32;33972;-87
2023/10/20 00:17:23;;;;;;;55.30;36.13;;;;;;;14.82;74.80;97363.28;4460674;32;33939;-87
2023/10/20 00:19:51;;;;;;;42.30;30.67;;;;;;;14.85;74.93;97368.38;4459383;32;34786;-87
2023/10/20 00:22:19;;;;;;;37.75;29.92;;;;;;;14.92;75.68;97364.66;4461749;32;33726;-88
2023/10/20 00:24:46;;;;;;;37.10;28.15;;;;;;;14.98;75.75;97377.50;4459597;32;34584;-88
2023/10/20 00:27:14;;;;;;;37.75;25.20;;;;;;;15.09;75.59;97379.75;4457315;32;33641;-85
2023/10/20 00:29:41;;;;;;;45.72;29.70;;;;;;;15.07;75.95;97376.34;4457781;32;34145;-87
2023/10/20 00:32:10;;;;;;;43.75;32.53;;;;;;;14.94;77.28;97372.44;4449752;32;32959;-88
2023/10/20 00:34:38;;;;;;;46.03;34.00;;;;;;;14.93;76.76;97361.16;4457216;32;33612;-88
2023/10/20 00:37:06;;;;;;;45.75;34.15;;;;;;;15.05;75.43;97365.94;4466347;32;33578;-87
2023/10/20 00:39:35;;;;;;;46.05;34.05;;;;;;;15.05;75.46;97355.50;4453868;32;34087;-85
2023/10/20 00:42:02;;;;;;;45.33;35.03;;;;;;;15.10;75.21;97352.75;4452259;32;34540;-88
2023/10/20 00:44:30;;;;;;;44.30;34.20;;;;;;;15.16;74.73;97339.50;4453223;32;33402;-87
2023/10/20 00:46:58;;;;;;;42.28;33.22;;;;;;;15.24;74.17;97336.59;4452056;32;34955;-87
2023/10/20 00:49:26;;;;;;;44.72;33.92;;;;;;;15.24;74.15;97331.38;4464184;32;34580;-88
2023/10/20 00:51:53;;;;;;;44.72;32.45;;;;;;;15.23;74.10;97327.94;4467722;32;33673;-87
2023/10/20 00:54:22;;;;;;;41.53;31.67;;;;;;;15.31;73.44;97325.06;4467062;32;34895;-88
2023/10/20 00:56:49;;;;;;;40.72;32.15;;;;;;;15.29;73.15;97321.62;4456981;32;34497;-85
2023/10/20 00:59:17;;;;;;;44.53;33.00;;;;;;;15.19;73.36;97304.56;4455617;32;34839;-88
2023/10/20 01:01:45;;;;;;;43.83;32.30;;;;;;;15.19;73.43;97305.47;4459584;32;32274;-87
2023/10/20 01:04:12;;;;;;;40.33;32.08;;;;;;;15.19;73.52;97300.25;4459172;32;34661;-85
2023/10/20 01:06:40;;;;;;;46.60;33.80;;;;;;;15.06;73.90;97297.19;4458822;32;33805;-87
2023/10/20 01:09:10;;;;;;;39.67;30.60;;;;;;;15.03;74.12;97299.91;4457312;32;33490;-89
2023/10/20 01:11:38;;;;;;;40.45;29.75;;;;;;;14.95;74.73;97296.72;4446331;32;33152;-87
2023/10/20 01:14:07;;;;;;;38.55;27.90;;;;;;;15.06;74.58;97288.50;4440039;32;33809;-88
2023/10/20 01:16:35;;;;;;;33.90;25.92;;;;;;;15.02;75.37;97277.31;4462914;32;34138;-85
2023/10/20 01:19:02;;;;;;;33.70;25.37;;;;;;;15.13;75.08;97273.50;4459031;32;33426;-87
2023/10/20 01:21:30;;;;;;;38.83;23.30;;;;;;;15.12;75.76;97282.25;4458010;32;33838;-88
2023/10/20 01:24:01;;;;;;;31.55;24.65;;;;;;;15.06;76.73;97268.47;4455442;32;33764;-86
2023/10/20 01:26:29;;;;;;;31.48;22.37;;;;;;;15.15;76.67;97276.88;4458674;32;34111;-87
2023/10/20 01:28:56;;;;;;;32.13;21.45;;;;;;;15.20;77.06;97272.37;4459771;32;33764;-87
2023/10/20 01:31:24;;;;;;;29.17;20.52;;;;;;;15.21;77.55;97266.22;4461194;32;33268;-86
2023/10/20 01:33:52;;;;;;;25.05;18.85;;;;;;;15.32;78.03;97267.53;4464217;32;34435;-88
2023/10/20 01:36:20;;;;;;;28.75;18.37;;;;;;;15.44;77.79;97255.78;4453035;32;34070;-88
2023/10/20 01:38:47;;;;;;;26.73;18.77;;;;;;;15.39;78.67;97257.72;4456378;32;33471;-88
2023/10/20 01:41:15;;;;;;;27.98;18.40;;;;;;;15.45;78.83;97256.63;4454631;32;33195;-88
2023/10/20 01:43:42;;;;;;;27.20;17.77;;;;;;;15.58;78.45;97255.28;4462081;32;34061;-87
2023/10/20 01:46:10;;;;;;;26.65;17.25;;;;;;;15.48;78.93;97249.53;4451655;32;33312;-87
2023/10/20 01:48:38;;;;;;;26.55;18.33;;;;;;;15.60;78.94;97242.16;4456790;32;34915;-86
2023/10/20 01:51:05;;;;;;;25.90;17.90;;;;;;;15.47;79.53;97242.63;4462839;32;34179;-87
2023/10/20 01:53:33;;;;;;;28.50;18.40;;;;;;;15.52;79.74;97238.06;4448627;32;33828;-88
2023/10/20 01:56:01;;;;;;;24.33;18.85;;;;;;;15.46;80.23;97234.87;4455595;32;33661;-88
2023/10/20 01:58:28;;;;;;;26.02;16.70;;;;;;;15.52;80.24;97238.06;4454743;32;34532;-88
2023/10/20 02:00:56;;;;;;;23.25;16.33;;;;;;;15.62;79.90;97235.97;4460135;32;33557;-88
2023/10/20 02:03:24;;;;;;;25.58;16.08;;;;;;;15.73;79.43;97232.97;4461507;32;33741;-87
2023/10/20 02:05:52;;;;;;;22.95;16.05;;;;;;;15.79;79.13;97233.56;4441488;32;34955;-88
2023/10/20 02:08:19;;;;;;;25.83;17.08;;;;;;;15.75;79.58;97237.22;4458650;32;35079;-87
2023/10/20 02:10:47;;;;;;;27.13;16.00;;;;;;;15.78;79.61;97231.03;4456360;32;33607;-87
2023/10/20 02:13:14;;;;;;;24.75;15.63;;;;;;;15.75;79.56;97225.91;4453209;32;33587;-87
2023/10/20 02:15:47;;;;;;;27.42;16.05;;;;;;;15.80;79.44;97213.53;4451900;32;34627;-86
2023/10/20 02:18:14;;;;;;;23.17;15.13;;;;;;;15.70;80.17;97206.97;4443497;32;34169;-87
2023/10/20 02:20:43;;;;;;;23.25;14.35;;;;;;;15.87;79.46;97206.28;4460333;32;34537;-87
2023/10/20 02:23:11;;;;;;;22.37;14.38;;;;;;;15.85;79.11;97203.75;4455010;32;33775;-87
2023/10/20 02:25:39;;;;;;;25.08;14.65;;;;;;;15.65;80.10;97198.44;4460505;32;35006;-87
2023/10/20 02:28:07;;;;;;;24.33;13.93;;;;;;;15.96;79.47;97198.09;4452418;32;34921;-85
2023/10/20 02:30:49;;;;;;;26.17;14.68;;;;;;;15.89;79.19;97200.09;4451682;32;33659;-86
2023/10/20 02:33:17;;;;;;;24.67;14.30;;;;;;;15.84;79.60;97199.44;4440035;32;33771;-87
2023/10/20 02:35:44;;;;;;;22.10;14.15;;;;;;;16.02;79.13;97200.44;4462792;32;34179;-87
2023/10/20 02:38:12;;;;;;;20.30;14.20;;;;;;;16.19;78.57;97199.78;4456814;32;34352;-87
2023/10/20 02:40:48;;;;;;;22.25;15.40;;;;;;;16.28;78.02;97188.94;4458667;32;33403;-88
2023/10/20 02:43:16;;;;;;;28.83;14.90;;;;;;;16.13;78.74;97200.03;4464971;32;34468;-88
2023/10/20 02:45:57;;;;;;;22.77;14.57;;;;;;;16.00;79.20;97213.59;4464197;32;34260;-88
2023/10/20 02:48:24;;;;;;;25.40;13.88;;;;;;;16.05;79.26;97209.03;4438920;32;34202;-87
2023/10/20 02:50:52;;;;;;;22.23;14.43;;;;;;;16.11;78.84;97201.88;4454603;32;33638;-87
2023/10/20 02:53:20;;;;;;;25.67;14.63;;;;;;;16.01;79.35;97204.84;4455705;32;34618;-88
2023/10/20 02:55:49;;;;;;;28.40;14.85;;;;;;;16.36;78.30;97204.28;4454975;32;34976;-88
2023/10/20 02:58:17;;;;;;;22.55;13.38;;;;;;;16.21;78.62;97200.56;4455388;32;34328;-86
2023/10/20 03:00:46;;;;;;;23.08;14.38;;;;;;;16.15;78.92;97198.22;4456731;32;33629;-88
2023/10/20 03:03:14;;;;;;;22.48;14.00;;;;;;;16.07;78.95;97193.28;4446203;32;33797;-87
2023/10/20 03:05:43;;;;;;;20.80;14.43;;;;;;;16.13;78.68;97200.03;4461244;32;34122;-87
2023/10/20 03:08:11;;;;;;;24.20;14.18;;;;;;;16.16;78.52;97200.75;4457059;32;34680;-88
2023/10/20 03:10:39;;;;;;;23.52;14.38;;;;;;;16.19;78.15;97203.25;4456441;32;33136;-88
2023/10/20 03:13:06;;;;;;;21.65;14.15;;;;;;;16.14;78.61;97212.16;4456570;32;34656;-88
2023/10/20 03:15:34;;;;;;;23.50;13.75;;;;;;;16.12;78.59;97214.84;4450181;32;33893;-88
2023/10/20 03:18:02;;;;;;;26.02;15.23;;;;;;;16.11;78.36;97209.72;4454217;32;34150;-89
2023/10/20 03:20:30;;;;;;;28.15;15.70;;;;;;;16.16;77.93;97208.59;4454690;32;34535;-88
2023/10/20 03:22:58;;;;;;;25.50;15.75;;;;;;;16.05;78.39;97211.63;4454413;32;33494;-90
2023/10/20 03:25:26;;;;;;;27.33;14.70;;;;;;;16.01;78.51;97212.69;4449513;32;34488;-88
2023/10/20 03:27:53;;;;;;;23.90;14.90;;;;;;;15.91;78.74;97226.16;4460037;32;34350;-87
2023/10/20 03:30:22;;;;;;;21.95;13.95;;;;;;;15.97;78.50;97199.78;4456078;32;33274;-88
2023/10/20 03:32:51;;;;;;;22.60;14.60;;;;;;;16.07;77.76;97205.53;4455052;32;33775;-87
2023/10/20 03:35:19;;;;;;;24.60;14.95;;;;;;;15.99;78.04;97203.22;4450660;32;33955;-87
2023/10/20 03:37:51;;;;;;;19.20;14.52;;;;;;;15.99;77.98;97198.84;4451225;32;34115;-90
2023/10/20 03:40:30;;;;;;;25.77;14.40;;;;;;;16.02;77.96;97200.44;4463141;32;32248;-88
2023/10/20 03:42:58;;;;;;;22.87;15.02;;;;;;;16.01;78.26;97210.06;4460028;32;33584;-88
2023/10/20 03:45:26;;;;;;;22.35;15.52;;;;;;;15.78;79.08;97203.13;4460496;32;34101;-87
2023/10/20 03:47:53;;;;;;;21.55;15.18;;;;;;;15.76;79.65;97206.75;4460443;32;33858;-88
2023/10/20 03:50:21;;;;;;;23.15;13.95;;;;;;;15.91;79.35;97194.81;4456532;32;34581;-89
2023/10/20 03:52:49;;;;;;;23.12;13.77;;;;;;;15.97;79.14;97191.97;4459059;32;34708;-87
2023/10/20 03:55:16;;;;;;;26.08;13.40;;;;;;;15.91;79.32;97200.03;4439541;32;33522;-88
2023/10/20 03:57:44;;;;;;;22.65;13.40;;;;;;;15.88;79.68;97200.19;4454465;32;34210;-88
2023/10/20 04:00:27;;;;;;;22.37;13.45;;;;;;;15.97;79.32;97194.56;4437387;32;33410;-88
2023/10/20 04:02:56;;;;;;;22.60;14.27;;;;;;;16.17;78.54;97193.75;4429765;32;33063;-87
2023/10/20 04:05:25;;;;;;;19.45;12.23;;;;;;;16.09;79.01;97180.16;4437785;32;34818;-88
2023/10/20 04:07:54;;;;;;;21.73;12.90;;;;;;;16.20;78.64;97175.31;4439134;32;33737;-87
2023/10/20 04:10:22;;;;;;;22.40;13.20;;;;;;;16.05;79.16;97182.88;4444408;32;33784;-88
2023/10/20 04:12:49;;;;;;;23.27;12.52;;;;;;;16.11;79.26;97171.34;4461189;32;34567;-88
2023/10/20 04:15:19;;;;;;;20.50;13.07;;;;;;;16.14;79.02;97171.22;4460616;32;33846;-87
2023/10/20 04:17:56;;;;;;;22.58;12.30;;;;;;;16.28;79.11;97173.25;4456447;32;33982;-89
2023/10/20 04:20:24;;;;;;;19.80;12.18;;;;;;;16.27;78.69;97184.62;4443700;32;34358;-88
2023/10/20 04:22:51;;;;;;;19.75;12.63;;;;;;;16.24;79.10;97167.28;4454109;32;33824;-88
2023/10/20 04:25:20;;;;;;;22.13;12.52;;;;;;;16.19;78.85;97168.41;4459273;32;34597;-87
2023/10/20 04:27:57;;;;;;;19.87;12.43;;;;;;;16.07;79.21;97163.69;4435268;32;32876;-87
2023/10/20 04:41:55;;;;;;;22.35;12.10;;;;;;;16.32;77.77;97179.19;4450419;32;34646;-86
2023/10/20 04:58:07;;;;;;;21.17;12.37;;;;;;;16.12;78.13;97164.34;4441168;32;34176;-87
2023/10/20 05:00:36;;;;;;;20.05;11.65;;;;;;;16.07;78.33;97171.53;4447531;32;33859;-87
2023/10/20 05:08:24;;;;;;;19.85;12.02;;;;;;;16.14;77.72;97162.50;4419447;32;33695;-87
2023/10/20 05:10:54;;;;;;;24.23;13.02;;;;;;;16.17;77.31;97167.59;4439229;32;34716;-85
2023/10/20 05:13:22;;;;;;;17.33;12.98;;;;;;;16.01;77.87;97173.47;4440783;32;33611;-87
2023/10/20 05:15:50;;;;;;;21.62;13.10;;;;;;;16.00;77.97;97165.72;4440986;32;33908;-87
2023/10/20 05:18:18;;;;;;;21.33;12.35;;;;;;;16.02;78.04;97172.56;4443734;32;35124;-86
2023/10/20 05:20:46;;;;;;;23.27;12.68;;;;;;;16.10;77.57;97169.66;4439689;32;33989;-85
2023/10/20 05:23:16;;;;;;;21.15;12.85;;;;;;;16.01;77.93;97170.84;4446763;32;33267;-87
2023/10/20 05:25:45;;;;;;;18.33;12.75;;;;;;;16.05;77.76;97172.44;4425653;32;33292;-88
2023/10/20 05:28:15;;;;;;;18.60;11.30;;;;;;;16.05;77.59;97175.03;4444628;32;33868;-86
2023/10/20 05:30:44;;;;;;;25.30;12.82;;;;;;;16.13;76.96;97174.72;4438630;32;34149;-86
2023/10/20 05:33:12;;;;;;;25.23;13.95;;;;;;;16.05;77.34;97174.19;4427971;32;33472;-87
2023/10/20 05:35:40;;;;;;;21.55;13.48;;;;;;;16.04;77.42;97189.03;4425390;32;34668;-87
2023/10/20 05:38:09;;;;;;;25.27;14.00;;;;;;;16.12;77.28;97183.50;4447869;32;34600;-87
2023/10/20 05:40:37;;;;;;;21.60;14.85;;;;;;;16.10;77.23;97180.09;4438097;32;34164;-86
2023/10/20 05:43:08;;;;;;;27.33;15.30;;;;;;;16.10;77.46;97179.22;4445459;32;34486;-86
2023/10/20 05:45:39;;;;;;;24.63;15.75;;;;;;;16.21;77.09;97188.34;4429516;32;34591;-87
2023/10/20 05:48:08;;;;;;;23.35;14.75;;;;;;;16.18;77.29;97193.72;4445563;32;33813;-87
2023/10/20 05:50:37;;;;;;;27.13;16.60;;;;;;;16.21;77.17;97184.88;4443626;32;34665;-87
2023/10/20 05:53:05;;;;;;;24.45;15.25;;;;;;;16.20;77.10;97186.63;4428926;32;33611;-87
2023/10/20 05:55:33;;;;;;;24.02;15.43;;;;;;;16.26;77.05;97196.00;4442028;32;34757;-86
2023/10/20 05:58:02;;;;;;;24.58;16.08;;;;;;;16.21;77.53;97190.09;4439493;32;33406;-85
2023/10/20 06:00:29;;;;;;;27.25;15.35;;;;;;;16.21;77.60;97196.19;4426263;32;34071;-87
2023/10/20 06:02:57;;;;;;;27.08;17.90;;;;;;;16.38;76.70;97195.47;4424318;32;35850;-87
2023/10/20 06:05:28;;;;;;;25.27;15.68;;;;;;;16.30;77.14;97194.97;4445892;32;34639;-86
2023/10/20 06:07:56;;;;;;;27.08;15.80;;;;;;;16.36;76.86;97196.44;4442336;32;33743;-86
2023/10/20 06:10:23;;;;;;;22.80;15.50;;;;;;;16.32;77.01;97189.66;4433783;32;34949;-86
2023/10/20 06:12:52;;;;;;;25.00;15.25;;;;;;;16.47;76.61;97184.62;4440261;32;34218;-85
2023/10/20 06:15:20;;;;;;;22.70;15.85;;;;;;;16.38;76.78;97185.03;4436427;32;34724;-85
2023/10/20 06:17:51;;;;;;;23.80;16.35;;;;;;;16.40;76.73;97184.94;4441431;32;34100;-85
2023/10/20 06:20:19;;;;;;;25.05;15.50;;;;;;;16.34;77.15;97188.69;4438022;32;34292;-86
2023/10/20 06:22:47;;;;;;;22.08;14.27;;;;;;;16.29;77.49;97188.87;4439249;32;33816;-86
2023/10/20 06:25:16;;;;;;;23.20;14.68;;;;;;;16.32;77.32;97185.28;4439033;32;33914;-86
2023/10/20 06:27:45;;;;;;;22.83;14.55;;;;;;;16.33;77.75;97188.72;4422438;32;33912;-87
2023/10/20 06:30:22;;;;;;;24.42;16.65;;;;;;;16.33;77.83;97181.75;4422805;32;34598;-88
2023/10/20 06:35:46;;;;;;;22.62;15.32;;;;;;;16.29;78.77;97169.72;4448232;32;33879;-87
2023/10/20 06:38:17;;;;;;;26.02;15.55;;;;;;;16.28;78.95;97168.00;4429042;32;35534;-86
2023/10/20 06:40:47;;;;;;;20.55;14.32;;;;;;;16.36;79.23;97168.53;4440112;32;34175;-86
2023/10/20 06:43:16;;;;;;;24.25;13.15;;;;;;;16.43;79.18;97167.38;4441193;32;32830;-86
2023/10/20 06:45:44;;;;;;;23.95;13.70;;;;;;;16.48;79.27;97168.03;4442822;32;33825;-86
2023/10/20 06:48:14;;;;;;;21.83;14.25;;;;;;;16.52;79.43;97164.38;4434283;32;33846;-85
2023/10/20 06:50:41;;;;;;;25.92;14.55;;;;;;;16.52;79.38;97166.97;4442175;32;34772;-85
2023/10/20 06:53:09;;;;;;;26.98;13.18;;;;;;;16.61;79.29;97164.88;4440938;32;34262;-86
2023/10/20 06:55:41;;;;;;;29.35;16.15;;;;;;;16.74;78.78;97179.16;4445448;32;32508;-86
2023/10/20 06:58:28;;;;;;;21.65;14.05;;;;;;;16.71;79.10;97172.28;4424775;32;33795;-85
2023/10/20 07:00:56;;;;;;;24.52;14.77;;;;;;;16.89;78.48;97175.84;4446024;32;33927;-86
2023/10/20 07:03:25;;;;;;;21.05;13.65;;;;;;;16.94;78.24;97176.53;4451212;32;34230;-85
2023/10/20 07:05:52;;;;;;;21.90;14.55;;;;;;;16.92;78.39;97165.25;4451488;32;34675;-87
2023/10/20 07:08:20;;;;;;;23.90;14.35;;;;;;;17.00;77.25;97163.13;4451209;32;34092;-85
2023/10/20 07:10:50;;;;;;;20.98;13.88;;;;;;;16.97;77.86;97172.91;4450104;32;34344;-85
2023/10/20 07:13:18;;;;;;;22.58;14.40;;;;;;;17.00;77.93;97178.84;4450866;32;34103;-86
2023/10/20 07:15:45;;;;;;;22.25;13.55;;;;;;;17.08;77.73;97167.19;4445956;32;33402;-87
2023/10/20 07:18:13;;;;;;;23.33;12.80;;;;;;;17.07;77.77;97173.34;4431293;32;34930;-87
2023/10/20 07:20:41;;;;;;;18.12;14.13;;;;;;;17.03;77.86;97173.47;4418732;32;34789;-87
2023/10/20 07:23:09;;;;;;;23.40;14.75;;;;;;;16.96;78.35;97171.19;4435700;32;33802;-88
2023/10/20 07:25:36;;;;;;;23.77;13.77;;;;;;;17.01;78.37;97182.34;4435596;32;34443;-85
2023/10/20 07:28:04;;;;;;;26.35;13.43;;;;;;;17.03;78.59;97188.34;4422113;32;35560;-85
2023/10/20 07:30:32;;;;;;;23.77;14.07;;;;;;;17.17;77.89;97183.34;4435703;32;33864;-86
2023/10/20 07:32:59;;;;;;;19.83;14.02;;;;;;;17.17;78.32;97185.09;4440748;32;33632;-85
2023/10/20 07:35:27;;;;;;;19.37;13.40;;;;;;;17.21;78.30;97186.66;4451085;32;33754;-85
2023/10/20 07:37:55;;;;;;;18.65;13.38;;;;;;;17.22;79.14;97178.72;4451312;32;34011;-86
2023/10/20 07:40:26;;;;;;;21.45;12.60;;;;;;;17.36;78.66;97175.50;4450723;32;34234;-87
2023/10/20 07:42:54;;;;;;;23.10;13.35;;;;;;;17.44;78.30;97177.75;4435423;32;32261;-85
2023/10/20 07:45:22;;;;;;;22.00;11.65;;;;;;;17.68;77.35;97167.88;4455155;32;33774;-86
2023/10/20 07:47:49;;;;;;;24.05;12.52;;;;;;;17.60;76.75;97167.41;4454682;32;33654;-85
2023/10/20 07:50:17;;;;;;;22.45;11.85;;;;;;;17.60;77.53;97172.63;4453143;32;35075;-86
2023/10/20 07:52:46;;;;;;;23.00;11.95;;;;;;;17.69;77.18;97169.56;4438008;32;33702;-85
2023/10/20 07:55:14;;;;;;;19.92;11.48;;;;;;;17.93;76.10;97171.06;4437104;32;33909;-87
2023/10/20 07:57:42;;;;;;;24.55;12.45;;;;;;;18.06;75.03;97157.34;4441419;32;35045;-86
2023/10/20 08:00:13;;;;;;;25.25;12.15;;;;;;;18.06;75.27;97155.56;4452273;32;34887;-87
2023/10/20 08:02:41;;;;;;;22.17;11.60;;;;;;;17.91;76.21;97156.31;4452743;32;33597;-86
2023/10/20 08:05:10;;;;;;;20.58;12.55;;;;;;;17.94;76.53;97161.41;4452788;32;34528;-87
2023/10/20 08:07:42;;;;;;;22.17;12.05;;;;;;;17.85;76.55;97157.47;4444828;32;34105;-84
2023/10/20 08:10:10;;;;;;;22.35;11.70;;;;;;;17.97;76.26;97161.28;4437478;32;34280;-86
2023/10/20 08:12:37;;;;;;;26.37;12.13;;;;;;;18.08;76.12;97142.37;4439867;32;33851;-84
2023/10/20 08:15:05;;;;;;;19.50;11.95;;;;;;;18.14;75.70;97148.16;4441651;32;33883;-85
2023/10/20 08:17:33;;;;;;;23.62;11.80;;;;;;;18.25;74.53;97150.25;4437293;32;35185;-86
2023/10/20 08:20:01;;;;;;;25.83;12.13;;;;;;;18.24;74.94;97138.06;4435469;32;35070;-86
2023/10/20 08:22:28;;;;;;;23.50;11.55;;;;;;;18.26;74.90;97141.47;4440991;32;33580;-86
2023/10/20 08:24:58;;;;;;;24.83;11.30;;;;;;;18.33;74.20;97140.22;4446501;32;33993;-85
2023/10/20 08:27:25;;;;;;;24.73;12.05;;;;;;;18.34;74.59;97157.66;4423133;32;32677;-85
2023/10/20 08:29:56;;;;;;;23.25;10.57;;;;;;;18.43;74.45;97157.19;4437128;32;34286;-85
2023/10/20 08:32:24;;;;;;;21.70;9.77;;;;;;;18.41;72.71;97156.44;4442725;32;33556;-85
2023/10/20 08:34:53;;;;;;;25.77;10.35;;;;;;;18.57;71.23;97160.91;4438756;32;34058;-86
2023/10/20 08:37:20;;;;;;;21.92;9.45;;;;;;;18.67;71.28;97164.72;4438583;32;34248;-86
2023/10/20 08:39:48;;;;;;;24.40;10.40;;;;;;;18.52;70.71;97160.25;4444236;32;34133;-83
2023/10/20 08:42:17;;;;;;;19.85;9.63;;;;;;;18.31;72.03;97156.97;4437104;32;33621;-85
2023/10/20 08:44:45;;;;;;;23.45;9.95;;;;;;;18.48;70.78;97157.78;4436942;32;34454;-85
2023/10/20 08:47:13;;;;;;;22.42;9.02;;;;;;;18.54;70.77;97161.91;4437165;32;34158;-85
2023/10/20 08:49:41;;;;;;;22.95;9.57;;;;;;;18.92;69.84;97161.72;4423101;32;34600;-85
2023/10/20 08:52:11;;;;;;;16.67;9.25;;;;;;;18.65;71.67;97175.31;4423189;32;33681;-86
2023/10/20 08:54:39;;;;;;;18.08;9.57;;;;;;;18.73;71.85;97172.31;4422617;32;33391;-85
2023/10/20 08:57:06;;;;;;;19.33;9.95;;;;;;;18.66;72.63;97173.53;4422769;32;34147;-86
2023/10/20 08:59:35;;;;;;;21.62;10.02;;;;;;;18.62;72.04;97172.84;4423335;32;33857;-84
2023/10/20 09:02:05;;;;;;;22.25;9.93;;;;;;;18.67;72.07;97151.59;4437327;32;34561;-86
2023/10/20 09:04:33;;;;;;;19.35;9.10;;;;;;;18.64;71.64;97167.53;4452075;32;34488;-85
2023/10/20 09:07:11;;;;;;;19.62;8.85;;;;;;;18.82;70.86;97163.97;4431826;32;34744;-87
2023/10/20 09:09:39;;;;;;;22.62;9.75;;;;;;;18.80;70.29;97160.59;4436971;32;34884;-86
2023/10/20 09:12:11;;;;;;;19.67;9.30;;;;;;;18.70;71.42;97162.81;4436857;32;34495;-86
2023/10/20 09:14:39;;;;;;;18.92;8.75;;;;;;;18.96;69.43;97164.09;4441823;32;36846;-85
2023/10/20 09:17:10;;;;;;;24.35;10.15;;;;;;;19.06;69.73;97158.37;4437468;32;34960;-87
2023/10/20 09:19:38;;;;;;;16.87;8.48;;;;;;;18.92;71.25;97162.56;4439823;32;34883;-84
2023/10/20 09:22:05;;;;;;;22.70;9.65;;;;;;;18.96;71.36;97161.47;4436740;32;33531;-86
2023/10/20 09:24:36;;;;;;;19.87;8.27;;;;;;;18.93;72.83;97164.25;4436768;32;34772;-86
2023/10/20 09:27:04;;;;;;;16.75;7.95;;;;;;;19.15;69.80;97155.22;4438574;32;34088;-84
2023/10/20 09:29:33;;;;;;;16.83;8.82;;;;;;;19.39;68.35;97151.25;4451927;32;34025;-86
2023/10/20 09:32:02;;;;;;;19.33;7.07;;;;;;;19.41;68.96;97146.78;4438154;32;33389;-86
2023/10/20 09:34:30;;;;;;;19.00;7.40;;;;;;;19.56;66.48;97141.63;4438395;32;34030;-87
2023/10/20 09:36:58;;;;;;;12.95;6.55;;;;;;;19.89;64.72;97142.37;4452168;32;34279;-85
2023/10/20 09:39:34;;;;;;;16.05;6.68;;;;;;;19.88;64.36;97139.81;4438374;32;33807;-85
2023/10/20 09:42:05;;;;;;;18.55;6.40;;;;;;;20.27;63.35;97130.56;4450139;32;33317;-84
2023/10/20 09:44:46;;;;;;;21.60;6.95;;;;;;;20.36;62.65;97130.88;4422372;32;33877;-84
2023/10/20 09:47:28;;;;;;;18.20;6.87;;;;;;;20.41;62.52;97125.31;4422741;32;33852;-85
2023/10/20 09:49:57;;;;;;;17.65;6.18;;;;;;;20.40;62.41;97113.94;4436343;32;34032;-85
2023/10/20 09:52:24;;;;;;;18.48;6.15;;;;;;;20.70;61.54;97114.88;4422872;32;34523;-85
2023/10/20 09:54:54;;;;;;;19.87;6.60;;;;;;;20.73;61.39;97119.97;4422423;32;32377;-84
2023/10/20 09:57:26;;;;;;;16.30;6.15;;;;;;;20.86;61.19;97124.38;4410220;32;33635;-86
2023/10/20 09:59:54;;;;;;;20.23;7.05;;;;;;;20.82;62.72;97129.91;4422921;32;34345;-85
2023/10/20 10:02:29;;;;;;;16.50;6.00;;;;;;;21.07;61.49;97124.00;4436178;32;33394;-85
2023/10/20 10:04:57;;;;;;;16.05;5.68;;;;;;;21.23;60.78;97123.88;4439949;32;33971;-85
2023/10/20 10:07:33;;;;;;;17.75;6.32;;;;;;;21.29;60.39;97103.28;4451718;32;34698;-85
2023/10/20 10:10:00;;;;;;;;;;;;;;;21.42;59.66;97086.69;4451733;32;34043;-84
2023/10/20 10:12:29;;;;;;;17.58;6.07;;;;;;;21.45;59.81;97087.34;4452153;32;34164;-86
2023/10/20 10:14:58;;;;;;;15.43;5.78;;;;;;;21.41;59.99;97093.75;4448129;32;34717;-86
2023/10/20 10:17:27;;;;;;;17.95;5.72;;;;;;;21.49;58.97;97103.81;4422770;32;34935;-86
2023/10/20 10:19:56;;;;;;;15.23;5.60;;;;;;;21.33;60.09;97112.72;4422661;32;34279;-86
2023/10/20 10:22:28;;;;;;;15.70;5.53;;;;;;;21.71;57.82;97117.31;4436279;32;33819;-85
2023/10/20 10:24:59;;;;;;;14.73;5.07;;;;;;;21.64;57.99;97138.91;4436299;32;33913;-85
2023/10/20 10:27:28;;;;;;;20.33;5.57;;;;;;;21.90;56.16;97124.03;4436291;32;34018;-86
2023/10/20 10:30:00;;;;;;;16.90;5.47;;;;;;;21.78;56.26;97126.53;4439217;32;33999;-87
2023/10/20 10:32:31;;;;;;;17.95;5.93;;;;;;;21.76;58.67;97123.12;4451816;32;33312;-86
2023/10/20 10:35:01;;;;;;;14.27;5.68;;;;;;;22.09;58.32;97129.78;4437674;32;34035;-85
2023/10/20 10:37:33;;;;;;;15.70;6.07;;;;;;;21.92;59.38;97128.22;4452062;32;34140;-85
2023/10/20 10:40:13;;;;;;;17.77;6.30;;;;;;;21.98;60.21;97135.75;4451919;32;34042;-85
2023/10/20 10:42:45;;;;;;;15.68;5.35;;;;;;;22.15;58.60;97129.38;4451844;32;34425;-85
2023/10/20 10:45:14;;;;;;;14.30;5.22;;;;;;;22.01;60.43;97122.38;4443803;32;33884;-87
2023/10/20 10:47:41;;;;;;;15.70;5.10;;;;;;;22.00;57.57;97111.91;4435982;32;34945;-85
2023/10/20 10:50:11;;;;;;;17.50;5.30;;;;;;;22.25;57.36;97113.78;4436515;32;34078;-85
2023/10/20 10:52:39;;;;;;;17.40;5.68;;;;;;;22.36;57.07;97110.44;4436165;32;33265;-87
2023/10/20 10:55:07;;;;;;;14.73;5.43;;;;;;;22.42;56.10;97100.28;4435923;32;34514;-86
2023/10/20 10:57:36;;;;;;;15.80;5.70;;;;;;;22.56;55.28;97102.84;4436174;32;34312;-87
2023/10/20 11:00:04;;;;;;;18.62;5.90;;;;;;;22.45;55.85;97100.09;4422258;32;34019;-86
2023/10/20 11:02:32;;;;;;;16.60;5.80;;;;;;;22.56;56.21;97089.63;4442995;32;33334;-87
2023/10/20 11:05:01;;;;;;;18.87;5.78;;;;;;;22.63;54.82;97079.50;4437287;32;34009;-87
2023/10/20 11:07:28;;;;;;;15.90;6.25;;;;;;;22.81;57.81;97083.50;4437028;32;34193;-87
2023/10/20 11:09:56;;;;;;;17.58;5.62;;;;;;;23.01;57.20;97068.06;4437043;32;34149;-88
2023/10/20 11:12:23;;;;;;;21.67;6.25;;;;;;;22.96;55.66;97064.91;4451482;32;32679;-88
2023/10/20 11:15:04;;;;;;;20.65;5.30;;;;;;;23.05;56.98;97056.31;4448352;32;33839;-87
2023/10/20 11:17:32;;;;;;;17.10;5.25;;;;;;;23.10;55.97;97050.72;4434284;32;34316;-90
2023/10/20 11:20:00;;;;;;;17.67;5.18;;;;;;;23.42;54.84;97038.66;4433687;32;34278;-85
2023/10/20 11:22:27;;;;;;;16.85;5.60;;;;;;;23.41;53.84;97010.53;4448352;32;33365;-88
2023/10/20 11:24:55;;;;;;;15.75;5.35;;;;;;;23.82;54.06;97011.06;4450416;32;33821;-89
2023/10/20 11:27:22;;;;;;;23.00;4.43;;;;;;;23.72;53.49;97030.28;4450859;32;34053;-84
2023/10/20 11:29:50;;;;;;;13.93;3.50;;;;;;;23.60;51.10;97020.59;4451489;32;34435;-85
2023/10/20 11:32:26;;;;;;;15.20;3.67;;;;;;;24.09;46.47;97013.44;4450874;32;33604;-86
2023/10/20 11:34:54;;;;;;;17.20;3.60;;;;;;;24.42;43.98;97004.72;4465631;32;34148;-83
2023/10/20 11:37:21;;;;;;;14.65;3.35;;;;;;;24.37;42.27;96997.13;4466663;32;33579;-86
2023/10/20 11:39:49;;;;;;;21.60;4.00;;;;;;;24.55;41.48;96960.44;4466400;32;34867;-86
2023/10/20 11:42:16;;;;;;;13.27;2.97;;;;;;;24.66;42.80;96984.28;4466564;32;33591;-85
2023/10/20 11:44:44;;;;;;;15.38;3.17;;;;;;;24.96;40.69;96996.91;4450201;32;33663;-86
2023/10/20 11:47:11;;;;;;;17.05;3.35;;;;;;;25.07;40.03;96987.22;4450633;32;34205;-86
2023/10/20 11:49:39;;;;;;;12.35;3.12;;;;;;;25.28;40.03;96995.28;4450252;32;34273;-86
2023/10/20 11:52:08;;;;;;;16.83;3.53;;;;;;;25.14;39.76;96999.88;4450750;32;33419;-88
2023/10/20 11:54:36;;;;;;;14.70;3.25;;;;;;;25.28;40.44;96985.53;4450671;32;34925;-87
2023/10/20 11:57:04;;;;;;;17.55;3.60;;;;;;;25.28;39.50;96990.81;4450653;32;34139;-88
2023/10/20 11:59:33;;;;;;;15.77;3.75;;;;;;;25.32;40.81;96996.72;4450683;32;33991;-89